createdAt,value
2022-10-30T00:03:42.335Z,100993.36
2022-10-30T00:09:22.286Z,100987.65
2022-10-30T00:15:02.297Z,100979.91
2022-10-30T00:20:42.329Z,100978.96
2022-10-30T00:26:22.304Z,100976.10
2022-10-30T00:32:02.357Z,100969.23
2022-10-30T00:37:42.338Z,100969.50
2022-10-30T00:43:44.342Z,100984.98
2022-10-30T00:49:29.281Z,100966.67
2022-10-30T00:55:11.316Z,100949.29
2022-10-30T01:00:53.372Z,100952.10
2022-10-30T01:06:42.317Z,100942.59
2022-10-30T01:12:23.310Z,100961.46
2022-10-30T01:18:24.313Z,100977.10
2022-10-30T01:24:26.344Z,100978.36
2022-10-30T01:30:26.398Z,100982.04
2022-10-30T01:36:19.789Z,100966.11
2022-10-30T01:42:01.337Z,100962.52
2022-10-30T01:47:52.331Z,100967.77
2022-10-30T01:53:56.373Z,100958.88
2022-10-30T01:59:40.346Z,100961.10
2022-10-30T02:05:22.360Z,100963.35
2022-10-30T02:11:04.389Z,100972.02
2022-10-30T02:16:50.368Z,100975.40
2022-10-30T02:22:31.451Z,100974.81
2022-10-30T02:28:11.359Z,100985.27
2022-10-30T02:33:51.396Z,100992.57
2022-10-30T02:39:31.366Z,100984.70
2022-10-30T02:45:11.345Z,100982.65
2022-10-30T02:50:51.428Z,100987.39
2022-10-30T02:56:31.402Z,100988.73
2022-10-30T03:02:11.630Z,100987.38
2022-10-30T03:07:51.383Z,100990.24
2022-10-30T03:13:31.429Z,100998.67
2022-10-30T03:19:11.421Z,100999.73
2022-10-30T03:24:51.378Z,101002.46
2022-10-30T03:30:31.401Z,100995.89
2022-10-30T03:36:11.431Z,101004.55
2022-10-30T03:41:51.428Z,101003.77
2022-10-30T03:47:31.444Z,101004.46
2022-10-30T03:53:11.449Z,101008.48
2022-10-30T03:58:51.444Z,100999.84
2022-10-30T04:04:31.392Z,100996.41
2022-10-30T04:10:21.139Z,100992.05
2022-10-30T04:16:04.471Z,100986.30
2022-10-30T04:21:44.441Z,100985.14
2022-10-30T04:27:24.430Z,100983.23
2022-10-30T04:33:05.426Z,100975.70
2022-10-30T04:38:45.444Z,100972.62
2022-10-30T04:44:25.465Z,100974.45
2022-10-30T04:50:05.489Z,100965.19
2022-10-30T04:55:46.450Z,100962.11
2022-10-30T05:01:26.548Z,100972.65
2022-10-30T05:07:07.502Z,100977.98
2022-10-30T05:12:47.459Z,100981.77
2022-10-30T05:18:27.502Z,100988.00
2022-10-30T05:24:08.497Z,100995.09
2022-10-30T05:29:49.477Z,101002.52
2022-10-30T05:35:29.500Z,101010.46
2022-10-30T05:41:09.550Z,101007.77
2022-10-30T05:46:49.543Z,101005.61
2022-10-30T05:52:31.446Z,100998.85
2022-10-30T05:58:15.616Z,101003.48
2022-10-30T06:03:55.529Z,101008.32
2022-10-30T06:09:35.538Z,101005.29
2022-10-30T06:15:24.523Z,101001.98
2022-10-30T06:21:04.497Z,101006.11
2022-10-30T06:26:53.515Z,101004.37
2022-10-30T06:32:33.551Z,101000.60
2022-10-30T06:38:15.516Z,101005.66
2022-10-30T06:43:55.499Z,101005.42
2022-10-30T06:49:37.501Z,101015.63
2022-10-30T06:55:17.542Z,101022.38
2022-10-30T07:01:12.607Z,101029.02
2022-10-30T07:07:15.567Z,101032.10
2022-10-30T07:13:11.540Z,101021.27
2022-10-30T07:19:02.091Z,101021.13
2022-10-30T07:24:44.562Z,101039.89
2022-10-30T07:30:34.546Z,101044.28
2022-10-30T07:36:46.548Z,101039.44
2022-10-30T07:42:45.579Z,101031.61
2022-10-30T07:48:44.777Z,101023.83
2022-10-30T07:54:35.558Z,101019.71
2022-10-30T08:00:32.582Z,101030.91
2022-10-30T08:06:26.266Z,101037.31
2022-10-30T08:12:06.677Z,101031.53
2022-10-30T08:17:46.574Z,101025.41
2022-10-30T08:23:28.584Z,101036.34
2022-10-30T08:29:13.583Z,101043.92
2022-10-30T08:34:53.623Z,101041.77
2022-10-30T08:40:33.621Z,101039.20
2022-10-30T08:46:14.725Z,101034.80
2022-10-30T08:51:56.623Z,101034.77
2022-10-30T08:57:36.734Z,101029.56
2022-10-30T09:03:16.626Z,101025.38
2022-10-30T09:09:15.671Z,101018.56
2022-10-30T09:14:58.622Z,101025.42
2022-10-30T09:20:45.635Z,101025.60
2022-10-30T09:26:23.641Z,101028.35
2022-10-30T09:32:24.680Z,101026.54
2022-10-30T09:38:10.697Z,101045.14
2022-10-30T09:44:22.850Z,101042.31
2022-10-30T09:50:34.490Z,101043.11
2022-10-30T09:56:30.116Z,101043.39
2022-10-30T10:02:17.765Z,101049.09
2022-10-30T10:08:58.256Z,101040.22
2022-10-30T10:14:39.622Z,101031.84
2022-10-30T10:20:33.739Z,101031.23
2022-10-30T10:26:21.672Z,101030.82
2022-10-30T10:32:40.899Z,101031.13
2022-10-30T10:38:26.716Z,101036.24
2022-10-30T10:44:29.682Z,101035.54
2022-10-30T10:50:28.677Z,101032.77
2022-10-30T10:56:11.672Z,101031.80
2022-10-30T11:01:54.811Z,101029.48
2022-10-30T11:07:37.671Z,101026.45
2022-10-30T11:13:18.711Z,101023.95
2022-10-30T11:19:00.711Z,101020.06
2022-10-30T11:24:45.703Z,101015.10
2022-10-30T11:30:35.762Z,101011.66
2022-10-30T11:36:24.782Z,101011.17
2022-10-30T11:42:17.693Z,101010.75
2022-10-30T11:48:02.473Z,101018.45
2022-10-30T11:53:46.691Z,101021.80
2022-10-30T11:59:34.706Z,101018.95
2022-10-30T12:05:16.772Z,101008.19
2022-10-30T12:10:59.703Z,101001.05
2022-10-30T12:16:40.722Z,100997.58
2022-10-30T12:22:20.773Z,100991.54
2022-10-30T12:28:00.762Z,100984.48
2022-10-30T12:33:45.759Z,100986.52
2022-10-30T12:39:31.742Z,100984.89
2022-10-30T12:45:25.756Z,100984.15
2022-10-30T12:51:21.227Z,100979.20
2022-10-30T12:57:18.756Z,100976.19
2022-10-30T13:03:09.736Z,100967.88
2022-10-30T13:08:51.185Z,100968.99
2022-10-30T13:14:35.820Z,100970.27
2022-10-30T13:20:38.798Z,100963.08
2022-10-30T13:26:47.748Z,100964.04
2022-10-30T13:32:44.829Z,100965.90
2022-10-30T13:38:38.871Z,100962.47
2022-10-30T13:44:31.795Z,100957.16
2022-10-30T13:50:27.793Z,100962.94
2022-10-30T13:56:08.772Z,100968.16
2022-10-30T14:01:56.413Z,100963.27
2022-10-30T14:07:46.839Z,100959.18
2022-10-30T14:13:17.523Z,100963.73
2022-10-30T14:18:47.612Z,100960.45
2022-10-30T14:24:04.387Z,100950.41
2022-10-30T14:29:37.219Z,100941.07
2022-10-30T14:34:44.391Z,100936.66
2022-10-30T14:39:51.573Z,100940.32
2022-10-30T14:45:14.467Z,100950.02
2022-10-30T14:50:37.975Z,100958.17
2022-10-30T14:55:55.749Z,100960.95
2022-10-30T15:01:44.257Z,100951.73
2022-10-30T15:06:59.510Z,100947.50
2022-10-30T15:12:20.977Z,100943.83
2022-10-30T15:17:31.879Z,100945.27
2022-10-30T15:22:38.286Z,100947.27
2022-10-30T15:27:47.484Z,100948.81
2022-10-30T15:32:53.480Z,100950.20
2022-10-30T15:38:05.190Z,100951.86
2022-10-30T15:43:15.874Z,100957.08
2022-10-30T15:48:27.262Z,100956.80
2022-10-30T15:53:40.231Z,100961.13
2022-10-30T15:58:54.364Z,100967.34
2022-10-30T16:04:00.862Z,100950.10
2022-10-30T16:09:14.219Z,100959.96
2022-10-30T16:14:24.439Z,100956.12
2022-10-30T16:19:38.318Z,100958.80
2022-10-30T16:24:45.599Z,100971.21
2022-10-30T16:29:53.770Z,100966.77
2022-10-30T16:35:02.894Z,100958.25
2022-10-30T16:40:15.232Z,100940.34
2022-10-30T16:45:49.376Z,100959.20
2022-10-30T16:51:00.857Z,100984.69
2022-10-30T16:56:19.597Z,100988.70
2022-10-30T17:01:28.633Z,100991.61
2022-10-30T17:06:40.547Z,100990.03
2022-10-30T17:12:01.765Z,100992.54
2022-10-30T17:17:23.542Z,100990.34
2022-10-30T17:22:31.917Z,100988.05
2022-10-30T17:27:46.799Z,100989.02
2022-10-30T17:32:56.048Z,100996.17
2022-10-30T17:38:03.076Z,100995.69
2022-10-30T17:43:11.369Z,100986.00
2022-10-30T17:48:21.452Z,100982.70
2022-10-30T17:53:28.657Z,100980.54
2022-10-30T17:58:34.590Z,100980.29
2022-10-30T18:03:40.968Z,100982.88
2022-10-30T18:08:50.565Z,100986.19
2022-10-30T18:13:57.865Z,100986.98
2022-10-30T18:19:03.938Z,100989.48
2022-10-30T18:24:14.693Z,100989.29
2022-10-30T18:29:48.554Z,100985.11
2022-10-30T18:34:54.806Z,100983.62
2022-10-30T18:40:00.791Z,100985.72
2022-10-30T18:45:19.728Z,100984.02
2022-10-30T18:50:27.343Z,100985.24
2022-10-30T18:55:37.372Z,100985.40
2022-10-30T19:01:10.708Z,100985.63
2022-10-30T19:06:13.689Z,100983.91
2022-10-30T19:11:24.648Z,100982.00
2022-10-30T19:16:32.169Z,100982.91
2022-10-30T19:21:38.348Z,100985.73
2022-10-30T19:26:44.827Z,100985.98
2022-10-30T19:31:50.880Z,100985.55
2022-10-30T19:36:56.809Z,100984.50
2022-10-30T19:42:02.666Z,100983.43
2022-10-30T19:47:10.434Z,100981.11
2022-10-30T19:52:16.505Z,100987.71
2022-10-30T19:57:22.502Z,100986.33
2022-10-30T20:02:28.733Z,100987.69
2022-10-30T20:07:34.549Z,100995.98
2022-10-30T20:12:40.956Z,101005.77
2022-10-30T20:17:47.599Z,101010.09
2022-10-30T20:22:54.852Z,101011.52
2022-10-30T20:28:05.841Z,101009.16
2022-10-30T20:33:13.913Z,101013.50
2022-10-30T20:38:21.937Z,101018.70
2022-10-30T20:43:31.958Z,101018.34
2022-10-30T20:48:38.085Z,101014.92
2022-10-30T20:53:44.807Z,101017.29
2022-10-30T20:58:53.862Z,101018.05
2022-10-30T21:04:01.655Z,101009.87
2022-10-30T21:09:08.179Z,101010.62
2022-10-30T21:14:14.073Z,101011.50
2022-10-30T21:19:20.000Z,101015.27
2022-10-30T21:24:26.697Z,101015.42
2022-10-30T21:29:35.150Z,101012.23
2022-10-30T21:34:41.437Z,101014.24
2022-10-30T21:39:47.456Z,101006.27
2022-10-30T21:44:53.465Z,101011.96
2022-10-30T21:49:59.342Z,101015.77
2022-10-30T21:55:06.325Z,101013.05
2022-10-30T22:00:14.875Z,101005.48
2022-10-30T22:05:20.819Z,101010.57
2022-10-30T22:10:27.695Z,101008.76
2022-10-30T22:15:33.738Z,101001.70
2022-10-30T22:20:39.642Z,100997.90
2022-10-30T22:25:53.446Z,100996.14
2022-10-30T22:31:05.311Z,100995.08
2022-10-30T22:36:16.099Z,100989.25
2022-10-30T22:41:24.275Z,100987.72
2022-10-30T22:46:31.512Z,100987.16
2022-10-30T22:51:39.539Z,100989.53
2022-10-30T22:56:45.436Z,100989.83
2022-10-30T23:01:51.383Z,100993.45
2022-10-30T23:06:57.487Z,100995.84
2022-10-30T23:12:03.814Z,100997.21
2022-10-30T23:17:10.194Z,100992.55
2022-10-30T23:22:16.121Z,100991.52
2022-10-30T23:27:22.493Z,100993.80
2022-10-30T23:32:28.669Z,100995.70
2022-10-30T23:37:34.737Z,100991.92
2022-10-30T23:42:40.777Z,100998.95
2022-10-30T23:47:46.915Z,101000.77
2022-10-30T23:52:52.997Z,101002.76
2022-10-30T23:57:59.286Z,101010.95
